sensor_id;sensor_type;location;lat;lon;timestamp;P1;durP1;ratioP1;P2;durP2;ratioP2
55037;SDS011;40937;53.594;10.034;2023-03-01T00:00:40;10.57;;;8.50;;
55037;SDS011;40937;53.594;10.034;2023-03-01T00:03:12;13.52;;;8.77;;
55037;SDS011;40937;53.594;10.034;2023-03-01T00:05:43;13.95;;;8.27;;
55037;SDS011;40937;53.594;10.034;2023-03-01T00:08:13;13.30;;;8.73;;
55037;SDS011;40937;53.594;10.034;2023-03-01T00:10:40;15.25;;;8.98;;
55037;SDS011;40937;53.594;10.034;2023-03-01T00:13:07;12.75;;;8.77;;
55037;SDS011;40937;53.594;10.034;2023-03-01T00:15:37;16.42;;;8.32;;
55037;SDS011;40937;53.594;10.034;2023-03-01T00:18:05;15.88;;;8.98;;
55037;SDS011;40937;53.594;10.034;2023-03-01T00:20:32;17.05;;;9.00;;
55037;SDS011;40937;53.594;10.034;2023-03-01T00:23:00;10.43;;;8.15;;
55037;SDS011;40937;53.594;10.034;2023-03-01T00:25:28;11.63;;;8.18;;
55037;SDS011;40937;53.594;10.034;2023-03-01T00:27:58;13.02;;;9.07;;
55037;SDS011;40937;53.594;10.034;2023-03-01T00:30:25;10.63;;;8.20;;
55037;SDS011;40937;53.594;10.034;2023-03-01T00:32:52;12.52;;;8.40;;
55037;SDS011;40937;53.594;10.034;2023-03-01T00:35:20;13.80;;;7.32;;
55037;SDS011;40937;53.594;10.034;2023-03-01T00:37:48;11.07;;;8.55;;
55037;SDS011;40937;53.594;10.034;2023-03-01T00:40:19;13.75;;;8.07;;
55037;SDS011;40937;53.594;10.034;2023-03-01T00:42:47;10.52;;;8.00;;
55037;SDS011;40937;53.594;10.034;2023-03-01T00:45:15;9.32;;;7.40;;
55037;SDS011;40937;53.594;10.034;2023-03-01T00:47:42;10.63;;;8.05;;
55037;SDS011;40937;53.594;10.034;2023-03-01T00:50:10;11.85;;;7.85;;
55037;SDS011;40937;53.594;10.034;2023-03-01T00:52:38;13.55;;;8.55;;
55037;SDS011;40937;53.594;10.034;2023-03-01T00:55:06;10.68;;;8.35;;
55037;SDS011;40937;53.594;10.034;2023-03-01T00:57:34;9.35;;;7.85;;
55037;SDS011;40937;53.594;10.034;2023-03-01T01:00:06;9.02;;;8.07;;
55037;SDS011;40937;53.594;10.034;2023-03-01T01:02:35;14.27;;;8.45;;
55037;SDS011;40937;53.594;10.034;2023-03-01T01:05:02;15.25;;;8.23;;
55037;SDS011;40937;53.594;10.034;2023-03-01T01:07:30;12.20;;;8.52;;
55037;SDS011;40937;53.594;10.034;2023-03-01T01:09:57;12.57;;;8.40;;
55037;SDS011;40937;53.594;10.034;2023-03-01T01:12:24;9.43;;;7.97;;
55037;SDS011;40937;53.594;10.034;2023-03-01T01:14:52;11.23;;;8.52;;
55037;SDS011;40937;53.594;10.034;2023-03-01T01:17:20;25.52;;;8.40;;
55037;SDS011;40937;53.594;10.034;2023-03-01T01:19:47;13.55;;;7.70;;
55037;SDS011;40937;53.594;10.034;2023-03-01T01:22:15;13.27;;;8.10;;
55037;SDS011;40937;53.594;10.034;2023-03-01T01:24:43;16.90;;;8.00;;
55037;SDS011;40937;53.594;10.034;2023-03-01T01:27:10;13.93;;;6.90;;
55037;SDS011;40937;53.594;10.034;2023-03-01T01:29:37;9.95;;;8.25;;
55037;SDS011;40937;53.594;10.034;2023-03-01T01:32:05;10.30;;;7.72;;
55037;SDS011;40937;53.594;10.034;2023-03-01T01:34:33;8.82;;;7.03;;
55037;SDS011;40937;53.594;10.034;2023-03-01T01:37:00;14.27;;;8.02;;
55037;SDS011;40937;53.594;10.034;2023-03-01T01:39:29;10.75;;;8.38;;
55037;SDS011;40937;53.594;10.034;2023-03-01T01:41:56;16.05;;;7.72;;
55037;SDS011;40937;53.594;10.034;2023-03-01T01:44:24;13.52;;;7.45;;
55037;SDS011;40937;53.594;10.034;2023-03-01T01:46:53;9.02;;;7.88;;
55037;SDS011;40937;53.594;10.034;2023-03-01T01:49:23;10.93;;;8.35;;
55037;SDS011;40937;53.594;10.034;2023-03-01T01:51:57;8.32;;;7.18;;
55037;SDS011;40937;53.594;10.034;2023-03-01T01:54:30;7.57;;;6.82;;
55037;SDS011;40937;53.594;10.034;2023-03-01T01:57:03;11.63;;;8.25;;
55037;SDS011;40937;53.594;10.034;2023-03-01T01:59:38;9.52;;;8.18;;
55037;SDS011;40937;53.594;10.034;2023-03-01T02:02:09;9.05;;;8.15;;
55037;SDS011;40937;53.594;10.034;2023-03-01T02:04:38;12.05;;;7.57;;
55037;SDS011;40937;53.594;10.034;2023-03-01T02:07:09;9.55;;;8.32;;
55037;SDS011;40937;53.594;10.034;2023-03-01T02:09:41;13.68;;;7.45;;
55037;SDS011;40937;53.594;10.034;2023-03-01T02:12:12;9.02;;;7.10;;
55037;SDS011;40937;53.594;10.034;2023-03-01T02:14:40;10.75;;;7.90;;
55037;SDS011;40937;53.594;10.034;2023-03-01T02:17:08;8.32;;;7.15;;
55037;SDS011;40937;53.594;10.034;2023-03-01T02:19:39;9.15;;;7.45;;
55037;SDS011;40937;53.594;10.034;2023-03-01T02:22:17;10.70;;;6.95;;
55037;SDS011;40937;53.594;10.034;2023-03-01T02:24:51;9.75;;;7.47;;
55037;SDS011;40937;53.594;10.034;2023-03-01T02:27:31;12.40;;;8.55;;
55037;SDS011;40937;53.594;10.034;2023-03-01T02:30:05;20.42;;;8.80;;
55037;SDS011;40937;53.594;10.034;2023-03-01T02:32:33;9.32;;;7.95;;
55037;SDS011;40937;53.594;10.034;2023-03-01T02:35:01;15.02;;;8.30;;
55037;SDS011;40937;53.594;10.034;2023-03-01T02:37:33;16.42;;;7.70;;
55037;SDS011;40937;53.594;10.034;2023-03-01T02:40:04;10.30;;;7.07;;
55037;SDS011;40937;53.594;10.034;2023-03-01T02:42:39;14.77;;;8.57;;
55037;SDS011;40937;53.594;10.034;2023-03-01T02:45:15;8.80;;;7.32;;
55037;SDS011;40937;53.594;10.034;2023-03-01T02:47:43;11.82;;;7.38;;
55037;SDS011;40937;53.594;10.034;2023-03-01T02:50:15;8.38;;;7.57;;
55037;SDS011;40937;53.594;10.034;2023-03-01T02:52:53;11.07;;;7.95;;
55037;SDS011;40937;53.594;10.034;2023-03-01T02:55:24;14.60;;;7.85;;
55037;SDS011;40937;53.594;10.034;2023-03-01T02:57:51;10.65;;;7.78;;
55037;SDS011;40937;53.594;10.034;2023-03-01T03:00:21;16.25;;;7.28;;
55037;SDS011;40937;53.594;10.034;2023-03-01T03:02:51;9.40;;;7.95;;
55037;SDS011;40937;53.594;10.034;2023-03-01T03:05:23;13.38;;;7.85;;
55037;SDS011;40937;53.594;10.034;2023-03-01T03:07:56;11.75;;;8.13;;
55037;SDS011;40937;53.594;10.034;2023-03-01T03:10:26;11.65;;;7.40;;
55037;SDS011;40937;53.594;10.034;2023-03-01T03:12:55;8.85;;;7.38;;
55037;SDS011;40937;53.594;10.034;2023-03-01T03:15:26;9.30;;;7.25;;
55037;SDS011;40937;53.594;10.034;2023-03-01T03:17:55;12.10;;;7.35;;
55037;SDS011;40937;53.594;10.034;2023-03-01T03:20:23;8.77;;;7.88;;
55037;SDS011;40937;53.594;10.034;2023-03-01T03:22:54;8.63;;;7.75;;
55037;SDS011;40937;53.594;10.034;2023-03-01T03:25:24;9.43;;;7.05;;
55037;SDS011;40937;53.594;10.034;2023-03-01T03:27:52;7.55;;;6.78;;
55037;SDS011;40937;53.594;10.034;2023-03-01T03:30:22;15.70;;;7.85;;
55037;SDS011;40937;53.594;10.034;2023-03-01T03:32:52;11.57;;;6.93;;
55037;SDS011;40937;53.594;10.034;2023-03-01T03:35:21;8.27;;;6.82;;
55037;SDS011;40937;53.594;10.034;2023-03-01T03:37:51;10.38;;;7.80;;
55037;SDS011;40937;53.594;10.034;2023-03-01T03:40:32;9.77;;;8.20;;
55037;SDS011;40937;53.594;10.034;2023-03-01T03:43:01;7.82;;;6.97;;
55037;SDS011;40937;53.594;10.034;2023-03-01T03:45:30;10.27;;;7.18;;
55037;SDS011;40937;53.594;10.034;2023-03-01T03:47:58;8.80;;;7.15;;
55037;SDS011;40937;53.594;10.034;2023-03-01T03:50:26;10.98;;;7.00;;
55037;SDS011;40937;53.594;10.034;2023-03-01T03:52:53;8.10;;;6.65;;
55037;SDS011;40937;53.594;10.034;2023-03-01T03:55:20;7.45;;;6.22;;
55037;SDS011;40937;53.594;10.034;2023-03-01T03:57:48;9.43;;;7.15;;
55037;SDS011;40937;53.594;10.034;2023-03-01T04:00:17;8.73;;;6.63;;
55037;SDS011;40937;53.594;10.034;2023-03-01T04:02:48;12.90;;;7.45;;
55037;SDS011;40937;53.594;10.034;2023-03-01T04:05:15;7.60;;;6.85;;
55037;SDS011;40937;53.594;10.034;2023-03-01T04:07:44;7.93;;;7.18;;
55037;SDS011;40937;53.594;10.034;2023-03-01T04:10:13;11.35;;;7.40;;
55037;SDS011;40937;53.594;10.034;2023-03-01T04:12:41;7.28;;;6.05;;
55037;SDS011;40937;53.594;10.034;2023-03-01T04:15:09;11.77;;;6.95;;
55037;SDS011;40937;53.594;10.034;2023-03-01T04:17:39;6.97;;;6.10;;
55037;SDS011;40937;53.594;10.034;2023-03-01T04:20:09;7.43;;;6.30;;
55037;SDS011;40937;53.594;10.034;2023-03-01T04:22:38;7.00;;;6.32;;
55037;SDS011;40937;53.594;10.034;2023-03-01T04:25:06;10.23;;;6.43;;
55037;SDS011;40937;53.594;10.034;2023-03-01T04:27:33;7.85;;;6.80;;
55037;SDS011;40937;53.594;10.034;2023-03-01T04:30:01;9.23;;;6.55;;
55037;SDS011;40937;53.594;10.034;2023-03-01T04:32:29;8.15;;;6.75;;
55037;SDS011;40937;53.594;10.034;2023-03-01T04:34:57;7.00;;;6.30;;
55037;SDS011;40937;53.594;10.034;2023-03-01T04:37:26;7.22;;;6.45;;
55037;SDS011;40937;53.594;10.034;2023-03-01T04:39:53;7.43;;;5.60;;
55037;SDS011;40937;53.594;10.034;2023-03-01T04:42:20;8.15;;;6.10;;
55037;SDS011;40937;53.594;10.034;2023-03-01T04:44:47;7.80;;;6.10;;
55037;SDS011;40937;53.594;10.034;2023-03-01T04:47:16;6.82;;;6.00;;
55037;SDS011;40937;53.594;10.034;2023-03-01T04:49:44;7.18;;;5.85;;
55037;SDS011;40937;53.594;10.034;2023-03-01T04:52:11;5.95;;;5.43;;
55037;SDS011;40937;53.594;10.034;2023-03-01T04:54:39;7.95;;;7.10;;
55037;SDS011;40937;53.594;10.034;2023-03-01T04:57:06;6.90;;;6.20;;
55037;SDS011;40937;53.594;10.034;2023-03-01T04:59:34;6.20;;;5.60;;
55037;SDS011;40937;53.594;10.034;2023-03-01T05:02:01;6.75;;;5.97;;
55037;SDS011;40937;53.594;10.034;2023-03-01T05:04:28;6.90;;;6.20;;
55037;SDS011;40937;53.594;10.034;2023-03-01T05:06:57;12.13;;;5.60;;
55037;SDS011;40937;53.594;10.034;2023-03-01T05:09:24;7.90;;;6.03;;
55037;SDS011;40937;53.594;10.034;2023-03-01T05:11:53;7.88;;;5.25;;
55037;SDS011;40937;53.594;10.034;2023-03-01T05:14:20;5.57;;;5.07;;
55037;SDS011;40937;53.594;10.034;2023-03-01T05:16:47;5.50;;;5.00;;
55037;SDS011;40937;53.594;10.034;2023-03-01T05:19:14;12.52;;;5.63;;
55037;SDS011;40937;53.594;10.034;2023-03-01T05:21:44;6.78;;;6.13;;
55037;SDS011;40937;53.594;10.034;2023-03-01T05:24:30;8.32;;;5.40;;
55037;SDS011;40937;53.594;10.034;2023-03-01T05:27:01;6.93;;;5.63;;
55037;SDS011;40937;53.594;10.034;2023-03-01T05:29:30;5.75;;;5.35;;
55037;SDS011;40937;53.594;10.034;2023-03-01T05:32:01;7.78;;;5.68;;
55037;SDS011;40937;53.594;10.034;2023-03-01T05:34:30;7.38;;;5.95;;
55037;SDS011;40937;53.594;10.034;2023-03-01T05:36:58;7.47;;;5.38;;
55037;SDS011;40937;53.594;10.034;2023-03-01T05:39:26;8.43;;;5.95;;
55037;SDS011;40937;53.594;10.034;2023-03-01T05:41:54;8.50;;;5.18;;
55037;SDS011;40937;53.594;10.034;2023-03-01T05:44:24;10.82;;;5.90;;
55037;SDS011;40937;53.594;10.034;2023-03-01T05:46:51;7.55;;;5.57;;
55037;SDS011;40937;53.594;10.034;2023-03-01T05:49:19;6.03;;;5.50;;
55037;SDS011;40937;53.594;10.034;2023-03-01T05:51:50;8.68;;;5.55;;
55037;SDS011;40937;53.594;10.034;2023-03-01T05:54:18;6.75;;;5.65;;
55037;SDS011;40937;53.594;10.034;2023-03-01T05:56:47;10.43;;;5.50;;
55037;SDS011;40937;53.594;10.034;2023-03-01T05:59:14;6.78;;;6.05;;
55037;SDS011;40937;53.594;10.034;2023-03-01T06:01:43;11.10;;;7.90;;
55037;SDS011;40937;53.594;10.034;2023-03-01T06:04:10;6.82;;;6.22;;
55037;SDS011;40937;53.594;10.034;2023-03-01T06:06:37;11.90;;;5.93;;
55037;SDS011;40937;53.594;10.034;2023-03-01T06:09:05;13.45;;;6.07;;
55037;SDS011;40937;53.594;10.034;2023-03-01T06:11:35;8.65;;;6.28;;
55037;SDS011;40937;53.594;10.034;2023-03-01T06:14:03;9.88;;;6.32;;
55037;SDS011;40937;53.594;10.034;2023-03-01T06:16:31;11.48;;;6.97;;
55037;SDS011;40937;53.594;10.034;2023-03-01T06:19:00;8.70;;;6.57;;
55037;SDS011;40937;53.594;10.034;2023-03-01T06:21:27;12.63;;;7.10;;
55037;SDS011;40937;53.594;10.034;2023-03-01T06:23:54;9.18;;;7.82;;
55037;SDS011;40937;53.594;10.034;2023-03-01T06:26:24;10.50;;;8.02;;
55037;SDS011;40937;53.594;10.034;2023-03-01T06:28:52;8.73;;;7.85;;
55037;SDS011;40937;53.594;10.034;2023-03-01T06:31:19;9.02;;;8.13;;
55037;SDS011;40937;53.594;10.034;2023-03-01T06:33:46;9.48;;;7.82;;
55037;SDS011;40937;53.594;10.034;2023-03-01T06:36:15;8.73;;;7.47;;
55037;SDS011;40937;53.594;10.034;2023-03-01T06:38:44;10.70;;;7.60;;
55037;SDS011;40937;53.594;10.034;2023-03-01T06:41:11;9.57;;;8.68;;
55037;SDS011;40937;53.594;10.034;2023-03-01T06:43:39;9.20;;;7.93;;
55037;SDS011;40937;53.594;10.034;2023-03-01T06:46:06;11.93;;;8.38;;
55037;SDS011;40937;53.594;10.034;2023-03-01T06:48:33;9.15;;;8.25;;
55037;SDS011;40937;53.594;10.034;2023-03-01T06:51:00;9.90;;;8.10;;
55037;SDS011;40937;53.594;10.034;2023-03-01T06:53:29;10.18;;;7.03;;
55037;SDS011;40937;53.594;10.034;2023-03-01T06:55:57;13.00;;;7.18;;
55037;SDS011;40937;53.594;10.034;2023-03-01T06:58:25;8.93;;;7.88;;
55037;SDS011;40937;53.594;10.034;2023-03-01T07:00:53;11.45;;;7.68;;
55037;SDS011;40937;53.594;10.034;2023-03-01T07:03:20;9.43;;;7.20;;
55037;SDS011;40937;53.594;10.034;2023-03-01T07:05:48;9.23;;;7.18;;
55037;SDS011;40937;53.594;10.034;2023-03-01T07:08:17;7.50;;;6.63;;
55037;SDS011;40937;53.594;10.034;2023-03-01T07:10:45;6.95;;;6.20;;
55037;SDS011;40937;53.594;10.034;2023-03-01T07:13:13;9.25;;;6.85;;
55037;SDS011;40937;53.594;10.034;2023-03-01T07:15:40;10.52;;;7.40;;
55037;SDS011;40937;53.594;10.034;2023-03-01T07:18:08;12.20;;;6.38;;
55037;SDS011;40937;53.594;10.034;2023-03-01T07:20:35;9.18;;;7.07;;
55037;SDS011;40937;53.594;10.034;2023-03-01T07:23:02;10.98;;;6.47;;
55037;SDS011;40937;53.594;10.034;2023-03-01T07:25:29;14.70;;;6.95;;
55037;SDS011;40937;53.594;10.034;2023-03-01T07:27:59;6.50;;;6.00;;
55037;SDS011;40937;53.594;10.034;2023-03-01T07:30:26;9.88;;;6.18;;
55037;SDS011;40937;53.594;10.034;2023-03-01T07:32:54;11.90;;;7.25;;
55037;SDS011;40937;53.594;10.034;2023-03-01T07:35:22;10.68;;;7.47;;
55037;SDS011;40937;53.594;10.034;2023-03-01T07:37:49;9.32;;;8.40;;
55037;SDS011;40937;53.594;10.034;2023-03-01T07:40:17;9.20;;;8.27;;
55037;SDS011;40937;53.594;10.034;2023-03-01T07:42:45;13.63;;;9.00;;
55037;SDS011;40937;53.594;10.034;2023-03-01T07:45:15;11.13;;;10.07;;
55037;SDS011;40937;53.594;10.034;2023-03-01T07:47:42;13.70;;;10.02;;
55037;SDS011;40937;53.594;10.034;2023-03-01T07:50:10;14.52;;;10.73;;
55037;SDS011;40937;53.594;10.034;2023-03-01T07:52:39;13.75;;;11.65;;
55037;SDS011;40937;53.594;10.034;2023-03-01T07:55:09;14.88;;;11.93;;
55037;SDS011;40937;53.594;10.034;2023-03-01T07:57:37;14.95;;;11.43;;
55037;SDS011;40937;53.594;10.034;2023-03-01T08:00:05;15.98;;;12.52;;
55037;SDS011;40937;53.594;10.034;2023-03-01T08:02:41;16.00;;;12.50;;
55037;SDS011;40937;53.594;10.034;2023-03-01T08:05:08;13.93;;;11.80;;
55037;SDS011;40937;53.594;10.034;2023-03-01T08:07:37;20.48;;;11.43;;
55037;SDS011;40937;53.594;10.034;2023-03-01T08:10:05;30.90;;;11.82;;
55037;SDS011;40937;53.594;10.034;2023-03-01T08:12:34;19.00;;;12.63;;
55037;SDS011;40937;53.594;10.034;2023-03-01T08:15:01;14.50;;;11.30;;
55037;SDS011;40937;53.594;10.034;2023-03-01T08:17:28;19.88;;;13.85;;
55037;SDS011;40937;53.594;10.034;2023-03-01T08:19:57;27.23;;;13.07;;
55037;SDS011;40937;53.594;10.034;2023-03-01T08:22:24;17.50;;;13.00;;
55037;SDS011;40937;53.594;10.034;2023-03-01T08:24:51;16.27;;;12.63;;
55037;SDS011;40937;53.594;10.034;2023-03-01T08:27:18;16.60;;;13.73;;
55037;SDS011;40937;53.594;10.034;2023-03-01T08:29:45;15.95;;;14.18;;
55037;SDS011;40937;53.594;10.034;2023-03-01T08:32:15;15.70;;;14.10;;
55037;SDS011;40937;53.594;10.034;2023-03-01T08:34:45;24.58;;;13.98;;
55037;SDS011;40937;53.594;10.034;2023-03-01T08:37:14;15.90;;;14.20;;
55037;SDS011;40937;53.594;10.034;2023-03-01T08:39:41;14.30;;;13.15;;
55037;SDS011;40937;53.594;10.034;2023-03-01T08:42:08;17.50;;;15.55;;
55037;SDS011;40937;53.594;10.034;2023-03-01T08:44:36;19.45;;;16.05;;
55037;SDS011;40937;53.594;10.034;2023-03-01T08:47:03;14.25;;;12.88;;
55037;SDS011;40937;53.594;10.034;2023-03-01T08:49:30;15.07;;;13.40;;
55037;SDS011;40937;53.594;10.034;2023-03-01T08:51:59;15.20;;;13.57;;
55037;SDS011;40937;53.594;10.034;2023-03-01T08:54:28;25.77;;;13.68;;
55037;SDS011;40937;53.594;10.034;2023-03-01T08:56:55;15.90;;;13.38;;
55037;SDS011;40937;53.594;10.034;2023-03-01T08:59:24;15.68;;;14.15;;
55037;SDS011;40937;53.594;10.034;2023-03-01T09:01:52;20.05;;;14.48;;
55037;SDS011;40937;53.594;10.034;2023-03-01T09:04:19;15.98;;;14.57;;
55037;SDS011;40937;53.594;10.034;2023-03-01T09:06:47;17.88;;;14.57;;
55037;SDS011;40937;53.594;10.034;2023-03-01T09:09:15;17.02;;;15.32;;
55037;SDS011;40937;53.594;10.034;2023-03-01T09:11:45;17.33;;;15.80;;
55037;SDS011;40937;53.594;10.034;2023-03-01T09:14:12;20.58;;;16.23;;
55037;SDS011;40937;53.594;10.034;2023-03-01T09:16:40;19.17;;;16.42;;
55037;SDS011;40937;53.594;10.034;2023-03-01T09:19:07;33.00;;;16.08;;
55037;SDS011;40937;53.594;10.034;2023-03-01T09:21:34;24.05;;;16.70;;
55037;SDS011;40937;53.594;10.034;2023-03-01T09:24:01;20.65;;;15.70;;
55037;SDS011;40937;53.594;10.034;2023-03-01T09:26:28;31.17;;;17.10;;
55037;SDS011;40937;53.594;10.034;2023-03-01T09:28:57;20.60;;;14.65;;
55037;SDS011;40937;53.594;10.034;2023-03-01T09:31:24;17.58;;;15.88;;
55037;SDS011;40937;53.594;10.034;2023-03-01T09:33:52;19.77;;;15.13;;
55037;SDS011;40937;53.594;10.034;2023-03-01T09:36:21;17.45;;;15.55;;
55037;SDS011;40937;53.594;10.034;2023-03-01T09:38:51;18.45;;;15.32;;
55037;SDS011;40937;53.594;10.034;2023-03-01T09:41:22;16.08;;;14.38;;
55037;SDS011;40937;53.594;10.034;2023-03-01T09:44:01;18.80;;;16.23;;
55037;SDS011;40937;53.594;10.034;2023-03-01T09:46:34;19.50;;;15.57;;
55037;SDS011;40937;53.594;10.034;2023-03-01T09:49:09;18.92;;;15.38;;
55037;SDS011;40937;53.594;10.034;2023-03-01T09:51:39;20.27;;;16.02;;
55037;SDS011;40937;53.594;10.034;2023-03-01T09:54:06;17.60;;;15.80;;
55037;SDS011;40937;53.594;10.034;2023-03-01T09:56:36;21.48;;;15.57;;
55037;SDS011;40937;53.594;10.034;2023-03-01T09:59:11;21.10;;;15.68;;
55037;SDS011;40937;53.594;10.034;2023-03-01T10:01:47;17.27;;;15.63;;
55037;SDS011;40937;53.594;10.034;2023-03-01T10:04:28;20.15;;;17.05;;
55037;SDS011;40937;53.594;10.034;2023-03-01T10:07:12;18.15;;;16.45;;
55037;SDS011;40937;53.594;10.034;2023-03-01T10:09:51;17.75;;;15.82;;
55037;SDS011;40937;53.594;10.034;2023-03-01T10:12:19;18.38;;;16.42;;
55037;SDS011;40937;53.594;10.034;2023-03-01T10:14:53;16.77;;;15.05;;
55037;SDS011;40937;53.594;10.034;2023-03-01T10:17:26;18.50;;;14.18;;
55037;SDS011;40937;53.594;10.034;2023-03-01T10:19:57;16.08;;;14.48;;
55037;SDS011;40937;53.594;10.034;2023-03-01T10:22:41;23.42;;;14.05;;
55037;SDS011;40937;53.594;10.034;2023-03-01T10:25:12;21.60;;;14.02;;
55037;SDS011;40937;53.594;10.034;2023-03-01T10:27:43;17.38;;;14.00;;
55037;SDS011;40937;53.594;10.034;2023-03-01T10:30:19;17.85;;;13.25;;
55037;SDS011;40937;53.594;10.034;2023-03-01T10:32:49;15.60;;;13.73;;
55037;SDS011;40937;53.594;10.034;2023-03-01T10:35:20;15.23;;;13.73;;
55037;SDS011;40937;53.594;10.034;2023-03-01T10:38:02;28.80;;;20.40;;
55037;SDS011;40937;53.594;10.034;2023-03-01T10:40:30;18.00;;;15.25;;
55037;SDS011;40937;53.594;10.034;2023-03-01T10:42:58;19.33;;;14.38;;
55037;SDS011;40937;53.594;10.034;2023-03-01T10:45:33;15.32;;;13.65;;
55037;SDS011;40937;53.594;10.034;2023-03-01T10:48:06;14.93;;;13.48;;
55037;SDS011;40937;53.594;10.034;2023-03-01T10:50:38;14.75;;;13.25;;
55037;SDS011;40937;53.594;10.034;2023-03-01T10:53:08;15.25;;;13.63;;
55037;SDS011;40937;53.594;10.034;2023-03-01T10:55:59;15.07;;;13.48;;
55037;SDS011;40937;53.594;10.034;2023-03-01T10:58:28;16.48;;;13.38;;
55037;SDS011;40937;53.594;10.034;2023-03-01T11:00:58;13.50;;;12.30;;
55037;SDS011;40937;53.594;10.034;2023-03-01T11:03:27;17.10;;;12.55;;
55037;SDS011;40937;53.594;10.034;2023-03-01T11:05:57;13.85;;;12.48;;
55037;SDS011;40937;53.594;10.034;2023-03-01T11:08:31;15.15;;;13.20;;
55037;SDS011;40937;53.594;10.034;2023-03-01T11:11:23;14.10;;;12.30;;
55037;SDS011;40937;53.594;10.034;2023-03-01T11:13:58;19.73;;;14.32;;
55037;SDS011;40937;53.594;10.034;2023-03-01T11:16:29;14.43;;;12.73;;
55037;SDS011;40937;53.594;10.034;2023-03-01T11:19:12;13.07;;;11.73;;
55037;SDS011;40937;53.594;10.034;2023-03-01T11:21:43;13.02;;;11.32;;
55037;SDS011;40937;53.594;10.034;2023-03-01T11:24:20;16.63;;;11.90;;
55037;SDS011;40937;53.594;10.034;2023-03-01T11:26:54;13.30;;;11.85;;
55037;SDS011;40937;53.594;10.034;2023-03-01T11:29:26;12.73;;;11.55;;
55037;SDS011;40937;53.594;10.034;2023-03-01T11:31:59;14.60;;;11.90;;
55037;SDS011;40937;53.594;10.034;2023-03-01T11:34:35;14.07;;;12.25;;
55037;SDS011;40937;53.594;10.034;2023-03-01T11:37:12;13.18;;;11.88;;
55037;SDS011;40937;53.594;10.034;2023-03-01T11:42:24;18.08;;;10.90;;
55037;SDS011;40937;53.594;10.034;2023-03-01T11:44:58;11.85;;;10.65;;
55037;SDS011;40937;53.594;10.034;2023-03-01T11:47:32;11.55;;;10.35;;
55037;SDS011;40937;53.594;10.034;2023-03-01T11:50:20;11.90;;;10.45;;
55037;SDS011;40937;53.594;10.034;2023-03-01T11:53:01;11.15;;;9.45;;
55037;SDS011;40937;53.594;10.034;2023-03-01T11:55:45;9.63;;;8.65;;
55037;SDS011;40937;53.594;10.034;2023-03-01T11:58:27;9.23;;;8.32;;
55037;SDS011;40937;53.594;10.034;2023-03-01T12:01:18;9.95;;;8.50;;
55037;SDS011;40937;53.594;10.034;2023-03-01T12:06:56;9.13;;;8.32;;
55037;SDS011;40937;53.594;10.034;2023-03-01T12:10:08;8.82;;;7.53;;
55037;SDS011;40937;53.594;10.034;2023-03-01T12:23:07;7.85;;;6.72;;
55037;SDS011;40937;53.594;10.034;2023-03-01T12:25:52;7.65;;;6.40;;
55037;SDS011;40937;53.594;10.034;2023-03-01T14:07:32;7.95;;;7.05;;
55037;SDS011;40937;53.594;10.034;2023-03-01T14:10:03;7.30;;;6.55;;
55037;SDS011;40937;53.594;10.034;2023-03-01T14:12:38;7.50;;;6.90;;
55037;SDS011;40937;53.594;10.034;2023-03-01T14:15:14;7.45;;;6.85;;
55037;SDS011;40937;53.594;10.034;2023-03-01T14:17:46;8.38;;;6.38;;
55037;SDS011;40937;53.594;10.034;2023-03-01T14:20:20;10.40;;;6.40;;
55037;SDS011;40937;53.594;10.034;2023-03-01T14:22:51;7.00;;;6.40;;
55037;SDS011;40937;53.594;10.034;2023-03-01T14:25:22;7.47;;;5.97;;
55037;SDS011;40937;53.594;10.034;2023-03-01T14:27:54;10.80;;;6.60;;
55037;SDS011;40937;53.594;10.034;2023-03-01T14:30:27;8.02;;;6.80;;
55037;SDS011;40937;53.594;10.034;2023-03-01T14:32:59;6.28;;;5.72;;
55037;SDS011;40937;53.594;10.034;2023-03-01T14:35:29;6.68;;;6.07;;
55037;SDS011;40937;53.594;10.034;2023-03-01T14:37:59;7.15;;;6.03;;
55037;SDS011;40937;53.594;10.034;2023-03-01T14:40:28;6.18;;;5.68;;
55037;SDS011;40937;53.594;10.034;2023-03-01T14:42:58;8.38;;;5.65;;
55037;SDS011;40937;53.594;10.034;2023-03-01T14:45:28;6.78;;;5.50;;
55037;SDS011;40937;53.594;10.034;2023-03-01T14:47:58;6.50;;;5.90;;
55037;SDS011;40937;53.594;10.034;2023-03-01T14:50:27;6.07;;;5.47;;
55037;SDS011;40937;53.594;10.034;2023-03-01T14:52:58;7.70;;;6.38;;
55037;SDS011;40937;53.594;10.034;2023-03-01T14:55:29;6.35;;;5.75;;
55037;SDS011;40937;53.594;10.034;2023-03-01T14:57:58;13.27;;;6.78;;
55037;SDS011;40937;53.594;10.034;2023-03-01T15:00:26;7.45;;;6.63;;
55037;SDS011;40937;53.594;10.034;2023-03-01T15:02:56;7.05;;;6.35;;
55037;SDS011;40937;53.594;10.034;2023-03-01T15:05:38;6.75;;;6.03;;
55037;SDS011;40937;53.594;10.034;2023-03-01T15:08:15;8.63;;;6.15;;
55037;SDS011;40937;53.594;10.034;2023-03-01T15:10:55;12.00;;;6.05;;
55037;SDS011;40937;53.594;10.034;2023-03-01T15:13:24;5.72;;;5.25;;
55037;SDS011;40937;53.594;10.034;2023-03-01T15:15:53;8.05;;;5.95;;
55037;SDS011;40937;53.594;10.034;2023-03-01T15:18:29;12.57;;;5.68;;
55037;SDS011;40937;53.594;10.034;2023-03-01T15:21:04;7.03;;;6.25;;
55037;SDS011;40937;53.594;10.034;2023-03-01T15:23:35;10.60;;;5.70;;
55037;SDS011;40937;53.594;10.034;2023-03-01T15:26:05;11.65;;;7.53;;
55037;SDS011;40937;53.594;10.034;2023-03-01T15:28:34;7.47;;;5.22;;
55037;SDS011;40937;53.594;10.034;2023-03-01T15:31:18;10.82;;;4.97;;
55037;SDS011;40937;53.594;10.034;2023-03-01T15:33:48;5.60;;;5.20;;
55037;SDS011;40937;53.594;10.034;2023-03-01T15:36:43;6.57;;;5.00;;
55037;SDS011;40937;53.594;10.034;2023-03-01T15:39:35;7.28;;;5.43;;
55037;SDS011;40937;53.594;10.034;2023-03-01T15:42:05;5.28;;;4.78;;
55037;SDS011;40937;53.594;10.034;2023-03-01T15:44:37;5.85;;;5.45;;
55037;SDS011;40937;53.594;10.034;2023-03-01T15:47:08;9.27;;;5.10;;
55037;SDS011;40937;53.594;10.034;2023-03-01T15:49:51;6.22;;;5.68;;
55037;SDS011;40937;53.594;10.034;2023-03-01T15:52:20;5.57;;;5.07;;
55037;SDS011;40937;53.594;10.034;2023-03-01T15:54:56;5.43;;;4.93;;
55037;SDS011;40937;53.594;10.034;2023-03-01T15:57:25;6.57;;;4.75;;
55037;SDS011;40937;53.594;10.034;2023-03-01T15:59:53;15.20;;;10.75;;
55037;SDS011;40937;53.594;10.034;2023-03-01T16:02:20;10.98;;;5.30;;
55037;SDS011;40937;53.594;10.034;2023-03-01T16:04:48;6.05;;;5.45;;
55037;SDS011;40937;53.594;10.034;2023-03-01T16:07:15;7.75;;;5.32;;
55037;SDS011;40937;53.594;10.034;2023-03-01T16:09:43;5.30;;;4.80;;
55037;SDS011;40937;53.594;10.034;2023-03-01T16:12:15;7.03;;;6.30;;
55037;SDS011;40937;53.594;10.034;2023-03-01T16:14:43;7.40;;;5.35;;
55037;SDS011;40937;53.594;10.034;2023-03-01T16:17:10;7.10;;;6.40;;
55037;SDS011;40937;53.594;10.034;2023-03-01T16:19:38;7.20;;;6.50;;
55037;SDS011;40937;53.594;10.034;2023-03-01T16:22:07;6.93;;;6.32;;
55037;SDS011;40937;53.594;10.034;2023-03-01T16:24:36;8.43;;;7.47;;
55037;SDS011;40937;53.594;10.034;2023-03-01T16:27:03;7.65;;;6.63;;
55037;SDS011;40937;53.594;10.034;2023-03-01T16:29:34;7.70;;;7.00;;
55037;SDS011;40937;53.594;10.034;2023-03-01T16:32:04;8.85;;;8.05;;
55037;SDS011;40937;53.594;10.034;2023-03-01T16:34:32;15.75;;;8.88;;
55037;SDS011;40937;53.594;10.034;2023-03-01T16:37:02;12.20;;;9.65;;